Time;durP1;ratioP1;P1;durP2;ratioP2;P2;SDS_P1;SDS_P2;PMS_P1;PMS_P2;Temp;Humidity;BMP_temperature;BMP_pressure;BME280_temperature;BME280_humidity;BME280_pressure;Samples;Min_cycle;Max_cycle;Signal;HPM_P1;HPM_P2
2023/11/29 00:00:53;;;;;;;18.83;10.40;;;;;;;;;;5035150;28;20036;-76
2023/11/29 00:03:19;;;;;;;16.30;9.77;;;;;;;;;;5033343;28;20021;-78
2023/11/29 00:05:45;;;;;;;14.45;8.98;;;;;;;;;;5029707;28;20033;-79
2023/11/29 00:08:11;;;;;;;13.88;9.10;;;;;;;;;;5031557;28;20036;-80
2023/11/29 00:10:37;;;;;;;14.88;8.70;;;;;;;;;;5034360;28;20055;-80
2023/11/29 00:13:03;;;;;;;18.48;9.98;;;;;;;;;;5029509;28;20025;-78
2023/11/29 00:15:29;;;;;;;15.88;9.52;;;;;;;;;;5033388;28;20022;-79
2023/11/29 00:17:56;;;;;;;15.75;9.65;;;;;;;;;;5031858;28;20082;-79
2023/11/29 00:20:22;;;;;;;14.18;8.82;;;;;;;;;;5035950;28;20020;-78
2023/11/29 00:22:48;;;;;;;15.73;9.70;;;;;;;;;;5033203;28;20028;-79
2023/11/29 00:25:14;;;;;;;15.32;9.02;;;;;;;;;;5031135;28;20073;-78
2023/11/29 00:27:41;;;;;;;14.85;9.52;;;;;;;;;;5037908;28;20029;-77
2023/11/29 00:30:07;;;;;;;13.93;9.18;;;;;;;;;;5033759;28;20043;-78
2023/11/29 00:32:33;;;;;;;15.50;10.20;;;;;;;;;;5036108;28;20014;-78
2023/11/29 00:34:59;;;;;;;13.88;9.00;;;;;;;;;;5030827;28;20034;-76
2023/11/29 00:37:26;;;;;;;15.93;9.18;;;;;;;;;;5029348;28;20022;-77
2023/11/29 00:39:52;;;;;;;17.20;9.98;;;;;;;;;;5029332;28;20026;-79
2023/11/29 00:42:18;;;;;;;14.23;9.48;;;;;;;;;;5025960;28;20018;-79
2023/11/29 00:44:44;;;;;;;16.65;9.88;;;;;;;;;;5017188;28;20057;-79
2023/11/29 00:47:10;;;;;;;14.23;8.93;;;;;;;;;;5021541;28;20034;-79
2023/11/29 00:49:37;;;;;;;13.15;9.15;;;;;;;;;;5019813;28;20125;-79
2023/11/29 00:52:03;;;;;;;14.23;9.05;;;;;;;;;;5019347;28;20029;-81
2023/11/29 00:54:29;;;;;;;16.70;10.50;;;;;;;;;;5019382;28;20045;-80
2023/11/29 00:56:55;;;;;;;16.02;9.77;;;;;;;;;;5038126;28;20087;-80
2023/11/29 00:59:21;;;;;;;16.23;10.38;;;;;;;;;;5056275;28;20049;-79
2023/11/29 01:01:47;;;;;;;15.48;9.50;;;;;;;;;;5030472;28;20038;-77
2023/11/29 01:04:14;;;;;;;15.13;9.43;;;;;;;;;;5034032;28;20050;-77
2023/11/29 01:06:41;;;;;;;15.18;9.45;;;;;;;;;;5028543;28;20111;-79
2023/11/29 01:09:07;;;;;;;17.25;11.48;;;;;;;;;;5022962;28;20234;-79
2023/11/29 01:11:33;;;;;;;15.68;9.93;;;;;;;;;;5016284;28;20065;-79
2023/11/29 01:13:59;;;;;;;17.02;9.90;;;;;;;;;;5016530;28;20030;-79
2023/11/29 01:16:25;;;;;;;17.50;10.63;;;;;;;;;;5018317;28;20029;-79
2023/11/29 01:18:51;;;;;;;16.98;10.30;;;;;;;;;;5025336;28;20397;-80
2023/11/29 01:21:18;;;;;;;15.95;10.45;;;;;;;;;;5019000;28;20065;-80
2023/11/29 01:23:44;;;;;;;15.02;9.65;;;;;;;;;;5018860;28;20088;-80
2023/11/29 01:26:10;;;;;;;15.13;10.05;;;;;;;;;;5019447;28;20025;-80
2023/11/29 01:28:36;;;;;;;16.10;9.60;;;;;;;;;;5051070;28;20038;-80
2023/11/29 01:31:06;;;;;;;19.30;10.45;;;;;;;;;;5036232;28;20029;-78
2023/11/29 01:33:33;;;;;;;13.80;8.68;;;;;;;;;;5020011;28;20516;-75
2023/11/29 01:36:05;;;;;;;14.38;9.10;;;;;;;;;;5018028;28;20045;-79
2023/11/29 01:38:31;;;;;;;;;;;;;;;;;;5018476;28;20085;-79
2023/11/29 01:40:57;;;;;;;15.07;9.57;;;;;;;;;;5023743;28;19952;-77
2023/11/29 01:43:24;;;;;;;15.18;8.52;;;;;;;;;;5031283;28;20037;-78
2023/11/29 01:45:50;;;;;;;15.18;10.35;;;;;;;;;;5030559;28;20024;-77
2023/11/29 01:48:16;;;;;;;16.98;10.43;;;;;;;;;;5021501;28;20117;-78
2023/11/29 01:50:45;;;;;;;13.32;8.80;;;;;;;;;;5024336;28;20105;-79
2023/11/29 01:53:11;;;;;;;13.93;9.30;;;;;;;;;;5028442;28;20035;-80
2023/11/29 01:55:37;;;;;;;15.73;9.65;;;;;;;;;;5040603;28;20097;-80
2023/11/29 01:58:03;;;;;;;12.20;7.82;;;;;;;;;;5042320;28;20029;-78
2023/11/29 02:00:29;;;;;;;14.63;8.57;;;;;;;;;;5045508;28;20106;-77
2023/11/29 02:02:55;;;;;;;12.18;8.80;;;;;;;;;;5033715;28;20033;-78
2023/11/29 02:05:22;;;;;;;13.60;8.65;;;;;;;;;;5048680;28;20092;-77
2023/11/29 02:07:48;;;;;;;13.00;7.93;;;;;;;;;;5026989;28;20030;-77
2023/11/29 02:10:14;;;;;;;12.93;8.68;;;;;;;;;;5031860;28;20025;-77
2023/11/29 02:12:41;;;;;;;13.75;8.55;;;;;;;;;;5034321;28;20029;-76
2023/11/29 02:15:08;;;;;;;15.35;8.98;;;;;;;;;;5040507;28;20018;-76
2023/11/29 02:17:35;;;;;;;15.73;9.73;;;;;;;;;;5032361;28;20048;-77
2023/11/29 02:20:01;;;;;;;15.90;10.38;;;;;;;;;;5025320;28;20022;-77
2023/11/29 02:22:28;;;;;;;18.20;11.82;;;;;;;;;;5033483;28;20404;-76
2023/11/29 02:24:54;;;;;;;14.93;10.35;;;;;;;;;;5027836;28;20043;-76
2023/11/29 02:27:21;;;;;;;16.55;10.68;;;;;;;;;;5045772;28;20120;-77
2023/11/29 02:29:47;;;;;;;15.73;10.40;;;;;;;;;;5031924;28;20024;-76
2023/11/29 02:32:13;;;;;;;17.95;11.05;;;;;;;;;;5018835;28;20401;-76
2023/11/29 02:34:45;;;;;;;17.20;10.93;;;;;;;;;;5014424;28;20030;-76
2023/11/29 02:37:12;;;;;;;14.25;9.35;;;;;;;;;;5020272;28;20022;-76
2023/11/29 02:39:39;;;;;;;15.30;10.15;;;;;;;;;;5022636;28;20091;-76
2023/11/29 02:42:05;;;;;;;15.35;10.15;;;;;;;;;;5029441;28;20085;-76
2023/11/29 02:44:31;;;;;;;16.40;9.82;;;;;;;;;;5029608;28;20025;-76
2023/11/29 02:46:57;;;;;;;13.27;8.85;;;;;;;;;;5037145;28;20044;-77
2023/11/29 02:49:26;;;;;;;14.43;8.50;;;;;;;;;;5046820;28;20041;-84
2023/11/29 02:51:52;;;;;;;12.05;8.20;;;;;;;;;;5052120;28;20515;-76
2023/11/29 02:54:18;;;;;;;11.10;7.55;;;;;;;;;;5026458;28;20397;-75
2023/11/29 02:56:44;;;;;;;13.25;8.02;;;;;;;;;;5038283;28;20025;-76
2023/11/29 02:59:10;;;;;;;11.27;7.55;;;;;;;;;;5051277;28;20061;-75
2023/11/29 03:01:36;;;;;;;15.95;10.23;;;;;;;;;;5039933;28;20041;-75
2023/11/29 03:04:03;;;;;;;16.42;10.48;;;;;;;;;;5026107;28;20523;-78
2023/11/29 03:06:29;;;;;;;17.45;11.20;;;;;;;;;;5043348;28;20037;-78
2023/11/29 03:08:55;;;;;;;17.83;11.65;;;;;;;;;;5024954;28;20028;-78
2023/11/29 03:11:21;;;;;;;18.90;12.70;;;;;;;;;;5036593;28;20022;-77
2023/11/29 03:13:47;;;;;;;18.23;11.40;;;;;;;;;;5035134;28;20099;-75
2023/11/29 03:16:13;;;;;;;16.77;10.82;;;;;;;;;;5031805;28;20032;-75
2023/11/29 03:18:39;;;;;;;15.70;10.35;;;;;;;;;;5034807;28;20026;-74
2023/11/29 03:21:05;;;;;;;14.70;10.13;;;;;;;;;;5033122;28;20050;-78
2023/11/29 03:23:31;;;;;;;11.80;8.63;;;;;;;;;;5031944;28;20030;-76
2023/11/29 03:26:02;;;;;;;14.77;9.85;;;;;;;;;;5033797;28;20431;-77
2023/11/29 03:28:29;;;;;;;15.00;10.23;;;;;;;;;;5053664;28;20035;-74
2023/11/29 03:30:56;;;;;;;16.38;10.40;;;;;;;;;;5069767;28;20056;-78
2023/11/29 03:33:22;;;;;;;14.50;9.52;;;;;;;;;;5046008;28;20026;-77
2023/11/29 03:35:48;;;;;;;14.52;9.50;;;;;;;;;;5016962;28;20033;-76
2023/11/29 03:38:14;;;;;;;15.23;9.68;;;;;;;;;;5023982;28;20429;-76
2023/11/29 03:40:41;;;;;;;14.27;9.00;;;;;;;;;;5024076;28;20022;-78
2023/11/29 03:43:07;;;;;;;12.93;8.25;;;;;;;;;;5022791;28;20034;-79
2023/11/29 03:45:33;;;;;;;13.43;8.40;;;;;;;;;;5022616;28;20041;-79
2023/11/29 03:47:59;;;;;;;11.85;8.07;;;;;;;;;;5015308;28;20045;-78
2023/11/29 03:50:25;;;;;;;11.57;7.80;;;;;;;;;;5029092;28;20407;-78
2023/11/29 03:52:51;;;;;;;10.82;7.05;;;;;;;;;;5016435;28;20433;-80
2023/11/29 03:55:17;;;;;;;12.82;7.95;;;;;;;;;;5021489;28;20099;-78
2023/11/29 03:57:44;;;;;;;11.23;7.72;;;;;;;;;;5035358;28;20028;-77
2023/11/29 04:00:10;;;;;;;12.73;8.80;;;;;;;;;;5033582;28;20025;-78
2023/11/29 04:02:36;;;;;;;15.45;8.88;;;;;;;;;;5027238;28;20049;-77
2023/11/29 04:05:02;;;;;;;13.95;9.25;;;;;;;;;;5023705;28;20029;-77
2023/11/29 04:07:28;;;;;;;17.02;9.82;;;;;;;;;;5014241;28;20048;-79
2023/11/29 04:09:54;;;;;;;16.23;10.38;;;;;;;;;;5024533;28;20034;-77
2023/11/29 04:12:20;;;;;;;16.17;9.98;;;;;;;;;;5014873;28;20037;-77
2023/11/29 04:14:46;;;;;;;15.85;10.30;;;;;;;;;;5016897;28;20038;-78
2023/11/29 04:17:12;;;;;;;16.13;9.85;;;;;;;;;;5022011;28;20153;-78
2023/11/29 04:19:39;;;;;;;16.42;10.65;;;;;;;;;;5032092;28;20036;-77
2023/11/29 04:22:05;;;;;;;19.05;11.65;;;;;;;;;;5022512;28;20029;-75
2023/11/29 04:24:33;;;;;;;16.33;10.18;;;;;;;;;;5021336;28;20104;-75
2023/11/29 04:26:59;;;;;;;15.55;9.80;;;;;;;;;;5022902;28;20018;-75
2023/11/29 04:29:25;;;;;;;17.42;10.25;;;;;;;;;;5036191;28;20463;-75
2023/11/29 04:31:51;;;;;;;17.17;10.43;;;;;;;;;;5020439;28;20055;-76
2023/11/29 04:34:17;;;;;;;19.05;10.65;;;;;;;;;;5025656;28;20032;-75
2023/11/29 04:36:44;;;;;;;15.45;9.68;;;;;;;;;;5019648;28;20048;-76
2023/11/29 04:39:12;;;;;;;16.88;10.05;;;;;;;;;;5023456;28;20049;-76
2023/11/29 04:41:39;;;;;;;16.60;10.57;;;;;;;;;;5023050;28;20084;-77
2023/11/29 04:44:06;;;;;;;18.20;10.90;;;;;;;;;;5026670;28;20396;-77
2023/11/29 04:46:32;;;;;;;19.65;11.68;;;;;;;;;;5027169;28;20033;-75
2023/11/29 04:48:58;;;;;;;15.23;9.23;;;;;;;;;;5014513;28;20119;-78
2023/11/29 04:51:24;;;;;;;19.60;10.98;;;;;;;;;;5014513;28;20033;-78
2023/11/29 04:53:51;;;;;;;19.30;11.15;;;;;;;;;;5018236;28;20135;-79
2023/11/29 04:56:18;;;;;;;18.80;10.95;;;;;;;;;;5034385;28;20022;-78
2023/11/29 04:58:46;;;;;;;19.77;11.07;;;;;;;;;;5043513;28;20017;-78
2023/11/29 05:01:12;;;;;;;18.25;9.82;;;;;;;;;;5025385;28;20060;-77
2023/11/29 05:03:39;;;;;;;17.85;10.65;;;;;;;;;;5024973;28;20380;-78
2023/11/29 05:06:12;;;;;;;14.65;8.95;;;;;;;;;;5025289;28;20128;-79
2023/11/29 05:08:38;;;;;;;19.58;11.40;;;;;;;;;;5017903;28;20022;-77
2023/11/29 05:11:05;;;;;;;17.75;9.95;;;;;;;;;;5017179;28;20108;-75
2023/11/29 05:13:31;;;;;;;15.90;10.05;;;;;;;;;;5034160;28;20527;-75
2023/11/29 05:15:57;;;;;;;19.00;11.27;;;;;;;;;;5017678;28;20033;-76
2023/11/29 05:18:23;;;;;;;18.58;11.25;;;;;;;;;;5026490;28;20408;-78
2023/11/29 05:20:49;;;;;;;17.35;10.45;;;;;;;;;;5029859;28;20048;-77
2023/11/29 05:23:15;;;;;;;15.45;9.82;;;;;;;;;;5019500;28;20026;-78
2023/11/29 05:25:42;;;;;;;16.20;9.68;;;;;;;;;;5022120;28;20087;-79
2023/11/29 05:28:09;;;;;;;15.90;9.20;;;;;;;;;;5047288;28;20095;-78
2023/11/29 05:30:35;;;;;;;15.70;9.45;;;;;;;;;;5042693;28;20021;-79
2023/11/29 05:33:03;;;;;;;16.02;9.45;;;;;;;;;;5025701;28;20022;-78
2023/11/29 05:35:31;;;;;;;18.77;10.63;;;;;;;;;;5019225;28;20280;-79
2023/11/29 05:37:57;;;;;;;15.27;9.10;;;;;;;;;;5020667;28;20026;-79
2023/11/29 05:40:23;;;;;;;18.13;11.00;;;;;;;;;;5022533;28;20076;-78
2023/11/29 05:42:49;;;;;;;17.23;9.65;;;;;;;;;;5016791;28;20026;-77
2023/11/29 05:45:15;;;;;;;15.32;9.40;;;;;;;;;;5015186;28;20026;-77
2023/11/29 05:47:41;;;;;;;15.90;9.57;;;;;;;;;;5014626;28;20045;-78
2023/11/29 05:50:07;;;;;;;15.77;9.30;;;;;;;;;;5018051;28;20037;-77
2023/11/29 05:52:33;;;;;;;15.15;8.32;;;;;;;;;;5029951;28;20029;-78
2023/11/29 05:55:00;;;;;;;14.95;8.98;;;;;;;;;;5039838;28;20053;-77
2023/11/29 05:57:26;;;;;;;17.75;9.77;;;;;;;;;;5063310;28;20063;-77
2023/11/29 05:59:55;;;;;;;19.13;10.68;;;;;;;;;;5066837;28;20048;-77
2023/11/29 06:02:21;;;;;;;19.25;10.48;;;;;;;;;;5057262;28;20073;-80
2023/11/29 06:04:47;;;;;;;20.23;10.98;;;;;;;;;;5056896;28;20027;-79
2023/11/29 06:07:13;;;;;;;16.85;9.75;;;;;;;;;;5052050;28;20025;-77
2023/11/29 06:09:39;;;;;;;20.00;10.45;;;;;;;;;;5043361;28;20042;-77
2023/11/29 06:12:09;;;;;;;19.23;10.15;;;;;;;;;;5031295;28;20173;-79
2023/11/29 06:14:37;;;;;;;18.85;10.98;;;;;;;;;;5022126;28;20044;-78
2023/11/29 06:17:03;;;;;;;18.15;10.45;;;;;;;;;;5018713;28;20030;-77
2023/11/29 06:19:29;;;;;;;15.65;9.02;;;;;;;;;;5027094;28;20026;-79
2023/11/29 06:21:55;;;;;;;19.13;10.15;;;;;;;;;;5035726;28;20037;-79
2023/11/29 06:24:21;;;;;;;18.48;11.15;;;;;;;;;;5033644;28;20033;-79
2023/11/29 06:26:47;;;;;;;19.52;10.73;;;;;;;;;;5029475;28;20144;-78
2023/11/29 06:29:14;;;;;;;20.75;11.57;;;;;;;;;;5058157;28;20029;-79
2023/11/29 06:31:40;;;;;;;21.17;10.70;;;;;;;;;;5026441;28;20034;-79
2023/11/29 06:34:07;;;;;;;18.70;11.10;;;;;;;;;;5023268;28;20044;-79
2023/11/29 06:36:37;;;;;;;23.35;12.20;;;;;;;;;;5043404;28;20073;-80
2023/11/29 06:39:03;;;;;;;17.10;9.68;;;;;;;;;;5033890;28;20153;-78
2023/11/29 06:41:29;;;;;;;18.98;10.88;;;;;;;;;;5035203;28;20022;-78
2023/11/29 06:43:55;;;;;;;20.15;10.30;;;;;;;;;;5043319;28;20080;-78
2023/11/29 06:46:24;;;;;;;19.33;9.55;;;;;;;;;;5049549;28;20014;-78
2023/11/29 06:48:50;;;;;;;22.08;11.18;;;;;;;;;;5050405;28;20040;-77
2023/11/29 06:51:16;;;;;;;22.42;11.30;;;;;;;;;;5062882;28;20040;-77
2023/11/29 06:53:42;;;;;;;18.17;10.77;;;;;;;;;;5035349;28;20025;-78
2023/11/29 06:56:09;;;;;;;18.65;9.80;;;;;;;;;;5033250;28;20217;-78
2023/11/29 06:58:37;;;;;;;18.73;10.50;;;;;;;;;;5065583;28;20044;-79
2023/11/29 07:01:06;;;;;;;21.20;11.10;;;;;;;;;;5057581;28;20015;-79
2023/11/29 07:03:32;;;;;;;24.88;12.70;;;;;;;;;;5023516;28;20030;-80
2023/11/29 07:05:58;;;;;;;23.85;12.77;;;;;;;;;;5030723;28;20078;-81
2023/11/29 07:08:24;;;;;;;19.50;11.35;;;;;;;;;;5025698;28;20098;-79
2023/11/29 07:10:51;;;;;;;18.92;10.07;;;;;;;;;;5030433;28;20033;-78
2023/11/29 07:13:17;;;;;;;18.42;10.13;;;;;;;;;;5022382;28;20048;-79
2023/11/29 07:15:43;;;;;;;18.60;10.93;;;;;;;;;;5028054;28;20026;-79
2023/11/29 07:18:09;;;;;;;19.05;9.77;;;;;;;;;;5029537;28;20048;-80
2023/11/29 07:20:36;;;;;;;19.05;9.95;;;;;;;;;;5029452;28;20077;-80
2023/11/29 07:23:03;;;;;;;18.13;10.60;;;;;;;;;;5035469;28;20036;-80
2023/11/29 07:25:29;;;;;;;15.05;8.57;;;;;;;;;;5020524;28;20463;-80
2023/11/29 07:27:55;;;;;;;15.23;9.10;;;;;;;;;;5044621;28;20476;-79
2023/11/29 07:30:21;;;;;;;16.40;9.05;;;;;;;;;;5028644;28;20026;-79
2023/11/29 07:32:47;;;;;;;15.85;8.80;;;;;;;;;;5026649;28;20037;-79
2023/11/29 07:35:14;;;;;;;14.48;8.20;;;;;;;;;;5037657;28;20021;-79
2023/11/29 07:37:40;;;;;;;14.45;8.52;;;;;;;;;;5038557;28;20033;-80
2023/11/29 07:40:06;;;;;;;14.35;8.32;;;;;;;;;;5043954;28;20022;-79
2023/11/29 07:42:32;;;;;;;14.77;8.70;;;;;;;;;;5031393;28;20026;-78
2023/11/29 07:44:58;;;;;;;16.17;8.07;;;;;;;;;;5033105;28;20064;-79
2023/11/29 07:47:24;;;;;;;13.65;8.18;;;;;;;;;;5036784;28;20033;-79
2023/11/29 07:49:50;;;;;;;12.95;8.32;;;;;;;;;;5033552;28;20025;-79
2023/11/29 07:52:16;;;;;;;13.60;7.53;;;;;;;;;;5043997;28;20097;-78
2023/11/29 07:54:42;;;;;;;14.27;7.72;;;;;;;;;;5024747;28;20014;-79
2023/11/29 07:57:08;;;;;;;14.30;8.52;;;;;;;;;;5035882;28;20051;-78
2023/11/29 07:59:35;;;;;;;13.18;7.22;;;;;;;;;;5049282;28;20131;-79
2023/11/29 08:02:01;;;;;;;13.98;7.80;;;;;;;;;;5038726;28;20025;-79
2023/11/29 08:04:27;;;;;;;12.68;7.53;;;;;;;;;;5034779;28;20040;-79
2023/11/29 08:06:53;;;;;;;10.45;6.55;;;;;;;;;;5030837;28;20029;-79
2023/11/29 08:09:19;;;;;;;10.77;6.95;;;;;;;;;;5021425;28;20042;-79
2023/11/29 08:11:46;;;;;;;8.75;6.53;;;;;;;;;;5026906;28;20049;-79
2023/11/29 08:14:12;;;;;;;9.50;5.82;;;;;;;;;;5044713;28;20037;-79
2023/11/29 08:16:38;;;;;;;8.63;5.82;;;;;;;;;;5030002;28;20030;-81
2023/11/29 08:19:05;;;;;;;10.25;5.70;;;;;;;;;;5029315;28;20059;-79
2023/11/29 08:21:32;;;;;;;11.15;6.32;;;;;;;;;;5024359;28;20018;-78
2023/11/29 08:23:58;;;;;;;9.13;6.65;;;;;;;;;;5032554;28;20064;-79
2023/11/29 08:26:25;;;;;;;10.10;6.75;;;;;;;;;;5024714;28;20037;-80
2023/11/29 08:28:52;;;;;;;10.50;6.85;;;;;;;;;;5030872;28;20030;-79
2023/11/29 08:31:18;;;;;;;8.82;6.18;;;;;;;;;;5021671;28;20040;-79
2023/11/29 08:33:44;;;;;;;7.97;5.32;;;;;;;;;;5019743;28;20030;-79
2023/11/29 08:36:11;;;;;;;7.47;5.22;;;;;;;;;;5027981;28;20029;-80
2023/11/29 08:38:37;;;;;;;7.55;5.20;;;;;;;;;;5027487;28;20052;-79
2023/11/29 08:41:03;;;;;;;6.93;5.07;;;;;;;;;;5022109;28;20026;-80
2023/11/29 08:43:29;;;;;;;6.75;5.40;;;;;;;;;;5022546;28;20030;-79
2023/11/29 08:45:58;;;;;;;5.60;4.32;;;;;;;;;;5021832;28;20036;-77
2023/11/29 08:48:24;;;;;;;7.63;4.72;;;;;;;;;;5026671;28;20354;-79
2023/11/29 08:50:50;;;;;;;6.55;3.95;;;;;;;;;;5020668;28;20026;-79
2023/11/29 08:53:17;;;;;;;4.82;4.05;;;;;;;;;;5024671;28;20030;-78
2023/11/29 08:55:44;;;;;;;6.22;3.58;;;;;;;;;;5029931;28;20022;-80
2023/11/29 08:58:13;;;;;;;5.40;3.72;;;;;;;;;;5026047;28;20108;-79
2023/11/29 09:00:41;;;;;;;4.70;3.85;;;;;;;;;;5028766;28;20033;-80
2023/11/29 09:03:09;;;;;;;7.07;4.05;;;;;;;;;;5037219;28;20132;-80
2023/11/29 09:05:35;;;;;;;5.20;3.80;;;;;;;;;;5024926;28;20050;-78
2023/11/29 09:08:01;;;;;;;4.57;3.70;;;;;;;;;;5021765;28;20108;-80
2023/11/29 09:10:27;;;;;;;5.28;3.67;;;;;;;;;;5030483;28;20060;-79
2023/11/29 09:12:53;;;;;;;4.90;3.95;;;;;;;;;;5028764;28;20026;-79
2023/11/29 09:15:19;;;;;;;4.70;3.75;;;;;;;;;;5034619;28;20025;-79
2023/11/29 09:17:46;;;;;;;5.35;4.18;;;;;;;;;;5043391;28;20032;-79
2023/11/29 09:20:12;;;;;;;6.93;4.22;;;;;;;;;;5041280;28;20098;-78
2023/11/29 09:22:38;;;;;;;5.05;3.80;;;;;;;;;;5049119;28;20017;-79
2023/11/29 09:25:05;;;;;;;5.32;4.15;;;;;;;;;;5051800;28;20026;-78
2023/11/29 09:27:31;;;;;;;4.93;4.30;;;;;;;;;;5052136;28;20057;-79
2023/11/29 09:29:58;;;;;;;6.10;4.38;;;;;;;;;;5059680;28;20029;-79
2023/11/29 09:32:24;;;;;;;6.43;4.70;;;;;;;;;;5039305;28;20009;-78
2023/11/29 09:34:50;;;;;;;7.15;4.28;;;;;;;;;;5042600;28;20033;-79
2023/11/29 09:37:16;;;;;;;6.35;4.32;;;;;;;;;;5042831;28;20034;-79
2023/11/29 09:39:42;;;;;;;4.85;3.90;;;;;;;;;;5044889;28;20038;-79
2023/11/29 09:42:09;;;;;;;5.57;4.43;;;;;;;;;;5036947;28;20025;-79
2023/11/29 09:44:39;;;;;;;6.32;4.30;;;;;;;;;;5052038;28;20029;-79
2023/11/29 09:47:06;;;;;;;6.53;4.10;;;;;;;;;;5032078;28;20488;-79
2023/11/29 09:49:32;;;;;;;7.22;4.22;;;;;;;;;;5037549;28;20038;-79
2023/11/29 09:51:58;;;;;;;6.10;4.07;;;;;;;;;;5040218;28;20036;-78
2023/11/29 09:54:25;;;;;;;4.80;3.90;;;;;;;;;;5041708;28;20097;-78
2023/11/29 09:56:51;;;;;;;4.50;3.83;;;;;;;;;;5035433;28;20041;-79
2023/11/29 09:59:17;;;;;;;5.25;4.20;;;;;;;;;;5051803;28;20526;-78
2023/11/29 10:01:47;;;;;;;5.63;4.00;;;;;;;;;;5026500;28;20022;-78
2023/11/29 10:04:14;;;;;;;4.38;3.67;;;;;;;;;;5039817;28;20033;-78
2023/11/29 10:06:40;;;;;;;5.35;3.65;;;;;;;;;;5031320;28;20056;-77
2023/11/29 10:09:11;;;;;;;5.05;3.53;;;;;;;;;;5038628;28;20041;-78
2023/11/29 10:11:37;;;;;;;4.10;3.42;;;;;;;;;;5033078;28;20032;-79
2023/11/29 10:14:04;;;;;;;4.20;3.20;;;;;;;;;;5030786;28;20077;-79
2023/11/29 10:16:30;;;;;;;4.97;3.63;;;;;;;;;;5026548;28;20064;-78
2023/11/29 10:18:58;;;;;;;4.95;3.92;;;;;;;;;;5019112;28;20033;-78
2023/11/29 10:21:24;;;;;;;6.18;4.28;;;;;;;;;;5026425;28;20388;-79
2023/11/29 10:23:50;;;;;;;5.40;4.13;;;;;;;;;;5028926;28;20120;-79
2023/11/29 10:26:17;;;;;;;5.70;4.07;;;;;;;;;;5017919;28;20449;-77
2023/11/29 10:28:43;;;;;;;5.53;4.05;;;;;;;;;;5049988;28;20029;-79
2023/11/29 10:31:09;;;;;;;4.35;3.03;;;;;;;;;;5031823;28;20546;-79
2023/11/29 10:33:37;;;;;;;4.07;3.47;;;;;;;;;;5048325;28;20427;-78
2023/11/29 10:36:04;;;;;;;4.13;3.35;;;;;;;;;;5031778;28;20025;-79
2023/11/29 10:38:33;;;;;;;4.50;3.42;;;;;;;;;;5035876;28;20029;-78
2023/11/29 10:41:01;;;;;;;4.50;3.15;;;;;;;;;;5032563;28;20053;-77
2023/11/29 10:43:29;;;;;;;4.38;3.40;;;;;;;;;;5027841;28;20048;-80
2023/11/29 10:46:00;;;;;;;6.05;3.58;;;;;;;;;;5018709;28;20030;-78
2023/11/29 10:48:27;;;;;;;5.30;3.72;;;;;;;;;;5026574;28;20037;-76
2023/11/29 10:50:53;;;;;;;7.10;3.95;;;;;;;;;;5048034;28;20021;-79
2023/11/29 10:53:20;;;;;;;6.20;4.10;;;;;;;;;;5048806;28;20036;-79
2023/11/29 10:55:47;;;;;;;5.30;3.80;;;;;;;;;;5034100;28;20426;-79
2023/11/29 10:58:16;;;;;;;5.70;3.92;;;;;;;;;;5044589;28;20017;-79
2023/11/29 11:00:47;;;;;;;5.65;3.92;;;;;;;;;;5058133;28;20036;-78
2023/11/29 11:03:32;;;;;;;3.78;3.10;;;;;;;;;;5034655;28;20018;-79
2023/11/29 11:06:30;;;;;;;8.23;4.80;;;;;;;;;;5018904;28;20034;-79
2023/11/29 11:08:57;;;;;;;6.68;4.28;;;;;;;;;;5046041;28;20104;-78
2023/11/29 11:11:42;;;;;;;6.05;3.85;;;;;;;;;;5041393;28;20020;-78
2023/11/29 11:14:19;;;;;;;5.30;3.60;;;;;;;;;;5047386;28;20374;-78
2023/11/29 11:17:02;;;;;;;4.63;3.47;;;;;;;;;;5044748;28;20040;-78
2023/11/29 11:19:35;;;;;;;4.68;3.97;;;;;;;;;;5040040;28;20477;-79
2023/11/29 11:22:02;;;;;;;4.68;3.65;;;;;;;;;;5029066;28;20021;-79
2023/11/29 11:24:47;;;;;;;4.05;3.45;;;;;;;;;;5036614;28;20083;-78
2023/11/29 11:27:14;;;;;;;4.80;3.30;;;;;;;;;;5031846;28;20030;-78
2023/11/29 11:29:41;;;;;;;4.55;3.15;;;;;;;;;;5021113;28;20100;-77
2023/11/29 11:32:07;;;;;;;4.07;3.30;;;;;;;;;;5038331;28;20026;-78
2023/11/29 11:34:33;;;;;;;3.92;3.28;;;;;;;;;;5043951;28;20028;-79
2023/11/29 11:36:59;;;;;;;4.80;3.30;;;;;;;;;;5042693;28;20475;-78
2023/11/29 11:39:27;;;;;;;4.43;3.72;;;;;;;;;;5050732;28;20019;-79
2023/11/29 11:41:53;;;;;;;4.38;3.55;;;;;;;;;;5025718;28;20061;-78
2023/11/29 11:44:20;;;;;;;4.03;3.10;;;;;;;;;;5030251;28;20021;-80
2023/11/29 11:46:48;;;;;;;6.68;3.78;;;;;;;;;;5034683;28;20036;-79
2023/11/29 11:49:14;;;;;;;5.38;3.75;;;;;;;;;;5024527;28;20077;-77
2023/11/29 11:51:40;;;;;;;3.17;2.85;;;;;;;;;;5034233;28;20026;-79
2023/11/29 11:54:07;;;;;;;4.80;3.67;;;;;;;;;;5038228;28;20119;-79
2023/11/29 11:56:33;;;;;;;6.72;3.47;;;;;;;;;;5027206;28;20029;-78
2023/11/29 11:59:00;;;;;;;4.47;3.45;;;;;;;;;;5030831;28;20030;-77
2023/11/29 12:01:27;;;;;;;3.45;3.15;;;;;;;;;;5030627;28;20021;-77
2023/11/29 12:03:53;;;;;;;5.10;3.22;;;;;;;;;;5039274;28;20029;-77
2023/11/29 12:06:20;;;;;;;4.68;3.60;;;;;;;;;;5027867;28;20026;-78
2023/11/29 12:08:46;;;;;;;3.15;2.72;;;;;;;;;;5035739;28;20052;-77
2023/11/29 12:11:13;;;;;;;4.22;2.92;;;;;;;;;;5040295;28;20025;-78
2023/11/29 12:13:39;;;;;;;4.07;3.20;;;;;;;;;;5049857;28;20029;-78
2023/11/29 12:16:15;;;;;;;4.40;3.20;;;;;;;;;;5028255;28;20571;-78
2023/11/29 12:18:41;;;;;;;3.47;2.97;;;;;;;;;;5018735;28;20089;-78
2023/11/29 12:21:07;;;;;;;4.43;3.17;;;;;;;;;;5019010;28;20029;-77
2023/11/29 12:23:34;;;;;;;4.78;3.58;;;;;;;;;;5020324;28;20018;-76
2023/11/29 12:26:02;;;;;;;4.38;3.38;;;;;;;;;;5035548;28;20031;-77
2023/11/29 12:28:31;;;;;;;4.28;3.03;;;;;;;;;;5050412;28;20016;-77
2023/11/29 12:31:00;;;;;;;3.83;2.72;;;;;;;;;;5027099;28;20365;-77
2023/11/29 12:33:26;;;;;;;2.30;2.10;;;;;;;;;;5029168;28;20026;-77
2023/11/29 12:35:52;;;;;;;3.42;2.50;;;;;;;;;;5035350;28;20029;-76
2023/11/29 12:38:19;;;;;;;3.55;2.55;;;;;;;;;;5020896;28;20480;-78
2023/11/29 12:40:45;;;;;;;3.85;2.50;;;;;;;;;;5026744;28;20030;-77
2023/11/29 12:43:12;;;;;;;3.42;2.20;;;;;;;;;;5017274;28;20022;-77
2023/11/29 12:45:38;;;;;;;2.80;2.08;;;;;;;;;;5031286;28;20025;-79
2023/11/29 12:48:04;;;;;;;2.80;2.22;;;;;;;;;;5024861;28;20084;-77
2023/11/29 12:50:32;;;;;;;3.00;2.40;;;;;;;;;;5016580;28;20053;-77
2023/11/29 12:52:58;;;;;;;1.75;1.65;;;;;;;;;;5032892;28;20022;-78
2023/11/29 12:55:24;;;;;;;2.90;2.20;;;;;;;;;;5036553;28;20431;-77
2023/11/29 12:57:50;;;;;;;2.42;1.90;;;;;;;;;;5019621;28;20022;-77
2023/11/29 13:00:16;;;;;;;3.55;2.60;;;;;;;;;;5040080;28;20112;-78
2023/11/29 13:02:42;;;;;;;3.03;1.95;;;;;;;;;;5028667;28;20022;-77
2023/11/29 13:05:08;;;;;;;2.05;1.85;;;;;;;;;;5018440;28;20105;-78
2023/11/29 13:07:35;;;;;;;3.33;2.20;;;;;;;;;;5034544;28;20022;-77
2023/11/29 13:10:01;;;;;;;3.33;2.28;;;;;;;;;;5028693;28;20026;-78
2023/11/29 13:12:27;;;;;;;4.22;2.30;;;;;;;;;;5028407;28;20029;-77
2023/11/29 13:14:53;;;;;;;2.67;2.13;;;;;;;;;;5017597;28;20030;-77
2023/11/29 13:17:22;;;;;;;3.03;1.85;;;;;;;;;;5019667;28;20036;-77
2023/11/29 13:19:48;;;;;;;2.08;1.33;;;;;;;;;;5019033;28;20202;-77
2023/11/29 13:22:14;;;;;;;1.50;1.40;;;;;;;;;;5027051;28;20498;-77
2023/11/29 13:24:40;;;;;;;1.40;1.30;;;;;;;;;;5037790;28;20029;-78
2023/11/29 13:27:06;;;;;;;1.73;1.50;;;;;;;;;;5037727;28;20039;-77
2023/11/29 13:29:33;;;;;;;7.32;1.60;;;;;;;;;;5042079;28;20032;-78
2023/11/29 13:32:00;;;;;;;3.95;1.52;;;;;;;;;;5013437;28;20022;-76
2023/11/29 13:34:26;;;;;;;1.77;1.42;;;;;;;;;;5024432;28;20021;-77
2023/11/29 13:36:52;;;;;;;3.47;1.63;;;;;;;;;;5039324;28;20434;-76
2023/11/29 13:39:18;;;;;;;1.42;1.30;;;;;;;;;;5035519;28;20048;-77
2023/11/29 13:41:44;;;;;;;3.58;1.67;;;;;;;;;;5033865;28;20018;-77
2023/11/29 13:44:11;;;;;;;2.25;1.58;;;;;;;;;;5020478;28;20213;-76
2023/11/29 13:46:37;;;;;;;2.83;1.48;;;;;;;;;;5028583;28;20056;-77
2023/11/29 13:49:04;;;;;;;1.90;1.55;;;;;;;;;;5027496;28;20049;-76
2023/11/29 13:51:30;;;;;;;1.98;1.67;;;;;;;;;;5029237;28;20033;-78
2023/11/29 13:53:57;;;;;;;3.50;2.05;;;;;;;;;;5016185;28;20029;-77
2023/11/29 13:56:23;;;;;;;3.47;1.73;;;;;;;;;;5032883;28;20056;-77
2023/11/29 13:58:49;;;;;;;2.65;1.90;;;;;;;;;;5031874;28;20021;-77
2023/11/29 14:01:16;;;;;;;3.25;2.42;;;;;;;;;;5035008;28;20025;-77
2023/11/29 14:03:42;;;;;;;3.22;2.15;;;;;;;;;;5036513;28;20037;-77
2023/11/29 14:06:09;;;;;;;5.63;2.50;;;;;;;;;;5021210;28;20053;-78
2023/11/29 14:08:35;;;;;;;2.95;1.92;;;;;;;;;;5019050;28;20057;-78
2023/11/29 14:11:01;;;;;;;2.13;1.90;;;;;;;;;;5031912;28;20029;-77
2023/11/29 14:13:29;;;;;;;3.33;2.00;;;;;;;;;;5018879;28;20053;-77
2023/11/29 14:15:56;;;;;;;3.08;1.85;;;;;;;;;;5022745;28;20065;-78
2023/11/29 14:18:22;;;;;;;2.75;2.03;;;;;;;;;;5031264;28;20022;-78
2023/11/29 14:20:49;;;;;;;2.50;1.67;;;;;;;;;;5020382;28;20426;-78
2023/11/29 14:23:15;;;;;;;2.72;1.42;;;;;;;;;;5031038;28;20093;-76
2023/11/29 14:25:41;;;;;;;1.23;1.13;;;;;;;;;;5025372;28;20392;-77
2023/11/29 14:28:07;;;;;;;2.15;1.60;;;;;;;;;;5037893;28;20036;-77
2023/11/29 14:30:33;;;;;;;2.72;1.67;;;;;;;;;;5048395;28;20021;-78